Meteo Giornale » Osservazioni meteo Russia » Irkutsk
ore: 03:30 - Osservazioni Meteo Irkutsk
Lat. 52° 16' N Lon. 104° 19' E Alt. 513 metri s.l.m.
14 °C
Sereno
Temp. 24 Ore
10 °C
27 °C
Nord
3.6 Km/h
Dew point 13 °C
Umidità 93 %
Visibilità 10 Km
Il sole sorge alle ore 06:13
Il sole tramonta alle ore 19:51
| Data e Ora | Cielo e Fenomeni | T °C | DP °C | Um. % | Pres. hPa | Vis. km | Vento km/h | |
|---|---|---|---|---|---|---|---|---|
| Oggi h: 03:30 | Sereno | 14 | 13 | 93 | 1009 | 10 | N 3.6 | |
| Oggi h: 03:00 | Sereno | 13 | 11 | 87 | 1009 | 10 | N 7.2 | |
| Oggi h: 02:30 | Sereno | 14 | 13 | 93 | 1010 | 10 | N 7.2 | |
| Oggi h: 02:00 | Sereno | 14 | 13 | 93 | 1010 | 10 | N 7.2 | |
| Oggi h: 01:30 | Sereno | 14 | 13 | 93 | 1010 | 10 | S/SE 10.8 | |
| Oggi h: 01:00 | Sereno | 15 | 13 | 87 | 1011 | 10 | N 7.2 | |
| Oggi h: 00:30 | Sereno | 15 | 13 | 87 | 1011 | 10 | S/SE 10.8 | |
| Oggi h: 00:00 | Sereno | 15 | 14 | 93 | 1011 | 10 | N 7.2 | |
| Ieri h: 23:30 | Sereno | 16 | 13 | 82 | 1010 | 10 | N 7.2 | |
| Ieri h: 23:00 | Sereno | 16 | 13 | 82 | 1010 | 10 | N 3.6 | |
| Ieri h: 22:30 | Sereno | 18 | 13 | 72 | 1010 | 10 | N 0 | |
| Ieri h: 22:00 | Sereno | 18 | 13 | 72 | 1010 | 10 | N 3.6 | |
| Ieri h: 21:30 | Sereno | 18 | 13 | 72 | 1010 | 10 | O/NO 14.4 | |
| Ieri h: 21:00 | Sereno | 19 | 13 | 68 | 1009 | 10 | O/NO 10.8 | |
| Ieri h: 20:30 | Sereno | 19 | 13 | 68 | 1009 | 10 | N 7.2 | |
| Ieri h: 20:00 | Sereno | 19 | 14 | 72 | 1008 | 10 | NO 14.4 | |
| Ieri h: 19:30 | Sereno | 22 | 14 | 60 | 1008 | 10 | N 7.2 | |
| Ieri h: 19:00 | Sereno | 22 | 15 | 64 | 1007 | 10 | N 7.2 | |
| Ieri h: 18:30 | Sereno | 24 | 15 | 57 | 1007 | 10 | N 7.2 | |
| Ieri h: 18:00 | Sereno | 26 | 14 | 47 | 1007 | 10 | N 7.2 | |
| Ieri h: 17:30 | Sereno | 27 | 13 | 42 | 1007 | 10 | N 7.2 | |
| Ieri h: 17:00 | Sereno | 26 | 13 | 44 | 1007 | 10 | N 7.2 | |
| Ieri h: 16:30 | Sereno | 26 | 12 | 41 | 1007 | 10 | S/SE 10.8 | |
| Ieri h: 16:00 | Sereno | 26 | 13 | 44 | 1007 | 10 | S 14.4 | |
| Ieri h: 15:30 | Sereno | 26 | 13 | 44 | 1007 | 10 | S 14.4 | |
| Ieri h: 15:00 | Sereno | 25 | 12 | 44 | 1007 | 10 | S 18 | |
| Ieri h: 14:30 | Sereno | 26 | 12 | 41 | 1008 | 10 | S/SE 21.6 | |
| Ieri h: 14:00 | Sereno | 26 | 12 | 41 | 1008 | 10 | S 21.6 | |
| Ieri h: 13:30 | Sereno | 26 | 12 | 41 | 1008 | 10 | S 21.6 | |
| Ieri h: 13:00 | Sereno | 25 | 13 | 47 | 1009 | 10 | S 25.2 | |
| Ieri h: 12:30 | Sereno | 25 | 12 | 44 | 1009 | 10 | S 25.2 | |
| Ieri h: 12:00 | Sereno | 24 | 12 | 47 | 1009 | 10 | S/SE 25.2 | |
| Ieri h: 11:30 | Sereno | 23 | 12 | 49 | 1009 | 10 | S/SE 21.6 | |
| Ieri h: 11:00 | Sereno | 22 | 12 | 53 | 1010 | 10 | S/SE 18 | |
| Ieri h: 10:30 | Sereno | 21 | 13 | 60 | 1010 | 10 | S/SE 18 | |
| Ieri h: 10:00 | Sereno | 20 | 12 | 59 | 1010 | 10 | SE 14.4 | |
| Ieri h: 09:30 | Sereno | 18 | 13 | 72 | 1010 | 10 | N 7.2 | |
| Ieri h: 09:00 | Sereno | 16 | 12 | 77 | 1011 | 10 | N 7.2 | |
| Ieri h: 08:30 | Sereno | 15 | 12 | 82 | 1011 | 10 | N 7.2 | |
| Ieri h: 08:00 | Sereno | 13 | 12 | 93 | 1011 | 10 | N 0 | |
| Ieri h: 07:30 | Sereno | 12 | 12 | 100 | 1011 | 10 | N 3.6 | |
| Ieri h: 07:00 | Sereno | 11 | 11 | 100 | 1011 | 8 | N 7.2 | |
| Ieri h: 06:30 | Sereno | 10 | 9 | 93 | 1011 | 9 | N 0 | |
| Ieri h: 06:00 | Sereno | 11 | 10 | 93 | 1011 | 8 | N 3.6 | |
| Ieri h: 05:30 | Banco di nebbia | 11 | 11 | 100 | 1011 | 0.6 | N 7.2 | |
| Ieri h: 05:00 | Sereno | 12 | 11 | 93 | 1011 | 9 | N 0 | |
| Ieri h: 04:30 | Sereno | 11 | 10 | 93 | 1011 | 10 | N 0 | |
| Ieri h: 04:00 | Sereno | 12 | 11 | 93 | 1011 | 10 | N 7.2 | |



